sensor_id;sensor_type;location;lat;lon;timestamp;P1;P4;P2;P0;N10;N4;N25;N1;N05;TS
71550;SPS30;59367;48.414;9.872;2023-05-07T00:00:36;4.872822285;;4.872822285;;;;;;;
71550;SPS30;59367;48.414;9.872;2023-05-07T00:01:42;4.153132439;;4.153132439;;;;;;;
71550;SPS30;59367;48.414;9.872;2023-05-07T00:02:48;4.505896091;;4.505896091;;;;;;;
71550;SPS30;59367;48.414;9.872;2023-05-07T00:03:54;3.941230297;;3.941230297;;;;;;;
71550;SPS30;59367;48.414;9.872;2023-05-07T00:04:59;4.341832638;;4.341832638;;;;;;;
71550;SPS30;59367;48.414;9.872;2023-05-07T00:06:06;4.326990604;;4.326990604;;;;;;;
71550;SPS30;59367;48.414;9.872;2023-05-07T00:07:12;4.370343685;;4.370343685;;;;;;;
71550;SPS30;59367;48.414;9.872;2023-05-07T00:08:18;4.151835918;;4.151835918;;;;;;;
71550;SPS30;59367;48.414;9.872;2023-05-07T00:09:24;4.498794556;;4.498794556;;;;;;;
71550;SPS30;59367;48.414;9.872;2023-05-07T00:10:29;4.185359001;;4.185359001;;;;;;;
71550;SPS30;59367;48.414;9.872;2023-05-07T00:11:36;4.599245548;;4.599245548;;;;;;;
71550;SPS30;59367;48.414;9.872;2023-05-07T00:12:42;5.060879707;;5.060879707;;;;;;;
71550;SPS30;59367;48.414;9.872;2023-05-07T00:13:48;5.255102634;;5.255102634;;;;;;;
71550;SPS30;59367;48.414;9.872;2023-05-07T00:14:54;4.692075729;;4.692075729;;;;;;;
71550;SPS30;59367;48.414;9.872;2023-05-07T00:15:59;4.956336021;;4.956336021;;;;;;;
71550;SPS30;59367;48.414;9.872;2023-05-07T00:17:05;5.174311638;;5.174311638;;;;;;;
71550;SPS30;59367;48.414;9.872;2023-05-07T00:18:11;5.04220295;;5.04220295;;;;;;;
71550;SPS30;59367;48.414;9.872;2023-05-07T00:19:18;4.432068348;;4.432068348;;;;;;;
71550;SPS30;59367;48.414;9.872;2023-05-07T00:20:23;4.335800648;;4.335800648;;;;;;;
71550;SPS30;59367;48.414;9.872;2023-05-07T00:21:29;3.52770853;;3.52770853;;;;;;;
71550;SPS30;59367;48.414;9.872;2023-05-07T00:22:35;4.414093494;;4.414093494;;;;;;;
71550;SPS30;59367;48.414;9.872;2023-05-07T00:23:41;5.205213547;;5.205213547;;;;;;;
71550;SPS30;59367;48.414;9.872;2023-05-07T00:24:48;5.435417175;;5.435417175;;;;;;;
71550;SPS30;59367;48.414;9.872;2023-05-07T00:25:54;4.371022701;;4.371022701;;;;;;;
71550;SPS30;59367;48.414;9.872;2023-05-07T00:27:00;5.006118298;;5.006118298;;;;;;;
71550;SPS30;59367;48.414;9.872;2023-05-07T00:28:06;4.588529587;;4.588529587;;;;;;;
71550;SPS30;59367;48.414;9.872;2023-05-07T00:29:12;4.708611965;;4.708611965;;;;;;;
71550;SPS30;59367;48.414;9.872;2023-05-07T00:30:19;4.879986286;;4.879986286;;;;;;;
71550;SPS30;59367;48.414;9.872;2023-05-07T00:31:26;4.801862717;;4.801862717;;;;;;;
71550;SPS30;59367;48.414;9.872;2023-05-07T00:32:32;4.56612587;;4.56612587;;;;;;;
71550;SPS30;59367;48.414;9.872;2023-05-07T00:33:38;5.128228188;;5.128228188;;;;;;;
71550;SPS30;59367;48.414;9.872;2023-05-07T00:34:44;4.586873531;;4.586873531;;;;;;;
71550;SPS30;59367;48.414;9.872;2023-05-07T00:35:51;4.228549004;;4.228549004;;;;;;;
71550;SPS30;59367;48.414;9.872;2023-05-07T00:36:56;4.371773243;;4.371773243;;;;;;;
71550;SPS30;59367;48.414;9.872;2023-05-07T00:38:02;4.60378933;;4.60378933;;;;;;;
71550;SPS30;59367;48.414;9.872;2023-05-07T00:39:08;4.802636147;;4.802636147;;;;;;;
71550;SPS30;59367;48.414;9.872;2023-05-07T00:40:14;4.549681664;;4.549681664;;;;;;;
71550;SPS30;59367;48.414;9.872;2023-05-07T00:41:20;4.12860918;;4.12860918;;;;;;;
71550;SPS30;59367;48.414;9.872;2023-05-07T00:42:26;4.791208267;;4.791208267;;;;;;;
71550;SPS30;59367;48.414;9.872;2023-05-07T00:43:32;4.271494389;;4.271494389;;;;;;;
71550;SPS30;59367;48.414;9.872;2023-05-07T00:44:39;4.103943348;;4.103943348;;;;;;;
71550;SPS30;59367;48.414;9.872;2023-05-07T00:45:45;4.159576416;;4.159576416;;;;;;;
71550;SPS30;59367;48.414;9.872;2023-05-07T00:46:51;4.19474268;;4.19474268;;;;;;;
71550;SPS30;59367;48.414;9.872;2023-05-07T00:47:59;4.545106888;;4.545106888;;;;;;;
71550;SPS30;59367;48.414;9.872;2023-05-07T00:49:05;4.083068848;;4.083068848;;;;;;;
71550;SPS30;59367;48.414;9.872;2023-05-07T00:50:12;4.523643017;;4.523643017;;;;;;;
71550;SPS30;59367;48.414;9.872;2023-05-07T00:51:18;4.072375298;;4.072375298;;;;;;;
71550;SPS30;59367;48.414;9.872;2023-05-07T00:52:24;4.906097889;;4.906097889;;;;;;;
71550;SPS30;59367;48.414;9.872;2023-05-07T00:53:31;4.616875648;;4.616875648;;;;;;;
71550;SPS30;59367;48.414;9.872;2023-05-07T00:54:38;4.162504196;;4.162504196;;;;;;;
71550;SPS30;59367;48.414;9.872;2023-05-07T00:55:47;4.20250845;;4.20250845;;;;;;;
71550;SPS30;59367;48.414;9.872;2023-05-07T00:56:53;4.326967239;;4.326967239;;;;;;;
71550;SPS30;59367;48.414;9.872;2023-05-07T00:58:00;4.8482337;;4.8482337;;;;;;;
71550;SPS30;59367;48.414;9.872;2023-05-07T00:59:07;3.988205194;;3.988205194;;;;;;;
71550;SPS30;59367;48.414;9.872;2023-05-07T01:00:14;4.667969227;;4.667969227;;;;;;;
71550;SPS30;59367;48.414;9.872;2023-05-07T01:01:21;4.056026459;;4.056026459;;;;;;;
71550;SPS30;59367;48.414;9.872;2023-05-07T01:02:27;4.01819706;;4.01819706;;;;;;;
71550;SPS30;59367;48.414;9.872;2023-05-07T01:03:34;3.839534044;;3.839534044;;;;;;;
71550;SPS30;59367;48.414;9.872;2023-05-07T01:04:40;3.981826067;;3.981826067;;;;;;;
71550;SPS30;59367;48.414;9.872;2023-05-07T01:05:46;4.773813248;;4.773813248;;;;;;;
71550;SPS30;59367;48.414;9.872;2023-05-07T01:06:56;4.078587532;;4.078587532;;;;;;;
71550;SPS30;59367;48.414;9.872;2023-05-07T01:08:04;3.81287694;;3.81287694;;;;;;;
71550;SPS30;59367;48.414;9.872;2023-05-07T01:09:11;4.961900711;;4.961900711;;;;;;;
71550;SPS30;59367;48.414;9.872;2023-05-07T01:10:17;4.350841522;;4.350841522;;;;;;;
71550;SPS30;59367;48.414;9.872;2023-05-07T01:11:25;4.830387115;;4.830387115;;;;;;;
71550;SPS30;59367;48.414;9.872;2023-05-07T01:12:31;4.387010098;;4.387010098;;;;;;;
71550;SPS30;59367;48.414;9.872;2023-05-07T01:13:38;4.551016808;;4.551016808;;;;;;;
71550;SPS30;59367;48.414;9.872;2023-05-07T01:14:46;5.268595695;;5.268595695;;;;;;;
71550;SPS30;59367;48.414;9.872;2023-05-07T01:15:52;5.396113396;;5.396113396;;;;;;;
71550;SPS30;59367;48.414;9.872;2023-05-07T01:16:57;4.53651619;;4.53651619;;;;;;;
71550;SPS30;59367;48.414;9.872;2023-05-07T01:18:04;4.628904343;;4.628904343;;;;;;;
71550;SPS30;59367;48.414;9.872;2023-05-07T01:19:10;5.049142838;;5.049142838;;;;;;;
71550;SPS30;59367;48.414;9.872;2023-05-07T01:20:19;4.779345512;;4.779345512;;;;;;;
71550;SPS30;59367;48.414;9.872;2023-05-07T01:21:26;5.345122337;;5.345122337;;;;;;;
71550;SPS30;59367;48.414;9.872;2023-05-07T01:22:35;5.13565731;;5.13565731;;;;;;;
71550;SPS30;59367;48.414;9.872;2023-05-07T01:23:43;5.275782108;;5.275782108;;;;;;;
71550;SPS30;59367;48.414;9.872;2023-05-07T01:24:50;4.760677814;;4.760677814;;;;;;;
71550;SPS30;59367;48.414;9.872;2023-05-07T01:25:56;4.669801235;;4.669801235;;;;;;;
71550;SPS30;59367;48.414;9.872;2023-05-07T01:27:02;4.904976368;;4.904976368;;;;;;;
71550;SPS30;59367;48.414;9.872;2023-05-07T01:28:08;4.164616585;;4.164616585;;;;;;;
71550;SPS30;59367;48.414;9.872;2023-05-07T01:29:14;5.275015354;;5.275015354;;;;;;;
71550;SPS30;59367;48.414;9.872;2023-05-07T01:30:21;4.591834545;;4.591834545;;;;;;;
71550;SPS30;59367;48.414;9.872;2023-05-07T01:31:29;5.329046249;;5.329046249;;;;;;;
71550;SPS30;59367;48.414;9.872;2023-05-07T01:32:37;5.072537422;;5.072537422;;;;;;;
71550;SPS30;59367;48.414;9.872;2023-05-07T01:33:45;4.602761745;;4.602761745;;;;;;;
71550;SPS30;59367;48.414;9.872;2023-05-07T01:34:53;4.164206982;;4.164206982;;;;;;;
71550;SPS30;59367;48.414;9.872;2023-05-07T01:36:02;4.300892353;;4.300892353;;;;;;;
71550;SPS30;59367;48.414;9.872;2023-05-07T01:37:10;4.326417923;;4.326417923;;;;;;;
71550;SPS30;59367;48.414;9.872;2023-05-07T01:38:17;4.029284;;4.029284;;;;;;;
71550;SPS30;59367;48.414;9.872;2023-05-07T01:39:25;3.800686121;;3.800686121;;;;;;;
71550;SPS30;59367;48.414;9.872;2023-05-07T01:40:33;4.503036499;;4.503036499;;;;;;;
71550;SPS30;59367;48.414;9.872;2023-05-07T01:41:40;4.730386734;;4.730386734;;;;;;;
71550;SPS30;59367;48.414;9.872;2023-05-07T01:42:48;5.116281986;;5.116281986;;;;;;;
71550;SPS30;59367;48.414;9.872;2023-05-07T01:43:54;4.966954708;;4.966954708;;;;;;;
71550;SPS30;59367;48.414;9.872;2023-05-07T01:45:01;5.145251274;;5.145251274;;;;;;;
71550;SPS30;59367;48.414;9.872;2023-05-07T01:46:08;5.205505371;;5.205505371;;;;;;;
71550;SPS30;59367;48.414;9.872;2023-05-07T01:47:14;4.27499485;;4.27499485;;;;;;;
71550;SPS30;59367;48.414;9.872;2023-05-07T01:48:23;5.337610722;;5.337610722;;;;;;;
71550;SPS30;59367;48.414;9.872;2023-05-07T01:49:29;4.87078619;;4.87078619;;;;;;;
71550;SPS30;59367;48.414;9.872;2023-05-07T01:50:35;5.241192818;;5.241192818;;;;;;;
71550;SPS30;59367;48.414;9.872;2023-05-07T01:51:42;5.411660671;;5.411660671;;;;;;;
71550;SPS30;59367;48.414;9.872;2023-05-07T01:52:49;4.85356617;;4.85356617;;;;;;;
71550;SPS30;59367;48.414;9.872;2023-05-07T01:53:56;4.546480656;;4.546480656;;;;;;;
71550;SPS30;59367;48.414;9.872;2023-05-07T01:55:03;3.824620008;;3.824620008;;;;;;;
71550;SPS30;59367;48.414;9.872;2023-05-07T01:56:10;4.157211781;;4.157211781;;;;;;;
71550;SPS30;59367;48.414;9.872;2023-05-07T01:57:15;3.574275255;;3.574275255;;;;;;;
71550;SPS30;59367;48.414;9.872;2023-05-07T01:58:21;3.934301615;;3.934301615;;;;;;;
71550;SPS30;59367;48.414;9.872;2023-05-07T01:59:27;3.59909153;;3.59909153;;;;;;;
71550;SPS30;59367;48.414;9.872;2023-05-07T02:00:34;3.887489319;;3.887489319;;;;;;;
71550;SPS30;59367;48.414;9.872;2023-05-07T02:01:39;4.172887802;;4.172887802;;;;;;;
71550;SPS30;59367;48.414;9.872;2023-05-07T02:02:45;3.675367117;;3.675367117;;;;;;;
71550;SPS30;59367;48.414;9.872;2023-05-07T02:03:51;3.733886719;;3.733886719;;;;;;;
71550;SPS30;59367;48.414;9.872;2023-05-07T02:04:59;3.519779444;;3.519779444;;;;;;;
71550;SPS30;59367;48.414;9.872;2023-05-07T02:06:05;4.693932533;;4.693932533;;;;;;;
71550;SPS30;59367;48.414;9.872;2023-05-07T02:07:11;3.919461966;;3.919461966;;;;;;;
71550;SPS30;59367;48.414;9.872;2023-05-07T02:08:16;3.863627195;;3.863627195;;;;;;;
71550;SPS30;59367;48.414;9.872;2023-05-07T02:09:22;3.825871944;;3.825871944;;;;;;;
71550;SPS30;59367;48.414;9.872;2023-05-07T02:10:28;3.867454052;;3.867454052;;;;;;;
71550;SPS30;59367;48.414;9.872;2023-05-07T02:11:33;3.9936378;;3.9936378;;;;;;;
71550;SPS30;59367;48.414;9.872;2023-05-07T02:12:40;4.019220829;;4.019220829;;;;;;;
71550;SPS30;59367;48.414;9.872;2023-05-07T02:13:46;4.183077812;;4.183077812;;;;;;;
71550;SPS30;59367;48.414;9.872;2023-05-07T02:14:52;4.040258408;;4.040258408;;;;;;;
71550;SPS30;59367;48.414;9.872;2023-05-07T02:15:58;3.917979002;;3.917979002;;;;;;;
71550;SPS30;59367;48.414;9.872;2023-05-07T02:17:05;4.030973911;;4.030973911;;;;;;;
71550;SPS30;59367;48.414;9.872;2023-05-07T02:18:11;3.753329277;;3.753329277;;;;;;;
71550;SPS30;59367;48.414;9.872;2023-05-07T02:19:16;4.482561588;;4.482561588;;;;;;;
71550;SPS30;59367;48.414;9.872;2023-05-07T02:20:22;4.020295143;;4.020295143;;;;;;;
71550;SPS30;59367;48.414;9.872;2023-05-07T02:21:28;4.751204967;;4.751204967;;;;;;;
71550;SPS30;59367;48.414;9.872;2023-05-07T02:22:34;4.33768177;;4.33768177;;;;;;;
71550;SPS30;59367;48.414;9.872;2023-05-07T02:23:41;4.787798405;;4.787798405;;;;;;;
71550;SPS30;59367;48.414;9.872;2023-05-07T02:24:47;4.862805367;;4.862805367;;;;;;;
71550;SPS30;59367;48.414;9.872;2023-05-07T02:25:52;4.483819008;;4.483819008;;;;;;;
71550;SPS30;59367;48.414;9.872;2023-05-07T02:26:58;4.345943451;;4.345943451;;;;;;;
71550;SPS30;59367;48.414;9.872;2023-05-07T02:28:04;5.144498825;;5.144498825;;;;;;;
71550;SPS30;59367;48.414;9.872;2023-05-07T02:29:10;4.885638237;;4.885638237;;;;;;;
71550;SPS30;59367;48.414;9.872;2023-05-07T02:30:17;4.376161575;;4.376161575;;;;;;;
71550;SPS30;59367;48.414;9.872;2023-05-07T02:31:23;5.193893909;;5.193893909;;;;;;;
71550;SPS30;59367;48.414;9.872;2023-05-07T02:32:30;4.618149757;;4.618149757;;;;;;;
71550;SPS30;59367;48.414;9.872;2023-05-07T02:33:36;4.313632488;;4.313632488;;;;;;;
71550;SPS30;59367;48.414;9.872;2023-05-07T02:34:43;5.222723007;;5.222723007;;;;;;;
71550;SPS30;59367;48.414;9.872;2023-05-07T02:35:49;4.468886375;;4.468886375;;;;;;;
71550;SPS30;59367;48.414;9.872;2023-05-07T02:36:54;4.90436554;;4.90436554;;;;;;;
71550;SPS30;59367;48.414;9.872;2023-05-07T02:38:01;4.991610527;;4.991610527;;;;;;;
71550;SPS30;59367;48.414;9.872;2023-05-07T02:39:08;4.279827595;;4.279827595;;;;;;;
71550;SPS30;59367;48.414;9.872;2023-05-07T02:40:14;4.727561951;;4.727561951;;;;;;;
71550;SPS30;59367;48.414;9.872;2023-05-07T02:41:21;4.530730724;;4.530730724;;;;;;;
71550;SPS30;59367;48.414;9.872;2023-05-07T02:42:27;4.402728081;;4.402728081;;;;;;;
71550;SPS30;59367;48.414;9.872;2023-05-07T02:43:32;4.387829781;;4.387829781;;;;;;;
71550;SPS30;59367;48.414;9.872;2023-05-07T02:44:38;4.483349323;;4.483349323;;;;;;;
71550;SPS30;59367;48.414;9.872;2023-05-07T02:45:44;4.316972256;;4.316972256;;;;;;;
71550;SPS30;59367;48.414;9.872;2023-05-07T02:46:51;4.843110561;;4.843110561;;;;;;;
71550;SPS30;59367;48.414;9.872;2023-05-07T02:47:56;4.328936577;;4.328936577;;;;;;;
71550;SPS30;59367;48.414;9.872;2023-05-07T02:49:02;4.214173317;;4.214173317;;;;;;;
71550;SPS30;59367;48.414;9.872;2023-05-07T02:50:09;3.928986073;;3.928986073;;;;;;;
71550;SPS30;59367;48.414;9.872;2023-05-07T02:51:17;3.972978354;;3.972978354;;;;;;;
71550;SPS30;59367;48.414;9.872;2023-05-07T02:52:24;4.532012939;;4.532012939;;;;;;;
71550;SPS30;59367;48.414;9.872;2023-05-07T02:53:29;4.61938715;;4.61938715;;;;;;;
71550;SPS30;59367;48.414;9.872;2023-05-07T02:54:35;4.780409336;;4.780409336;;;;;;;
71550;SPS30;59367;48.414;9.872;2023-05-07T02:55:41;5.019381523;;5.019381523;;;;;;;
71550;SPS30;59367;48.414;9.872;2023-05-07T02:56:48;5.286863327;;5.286863327;;;;;;;
71550;SPS30;59367;48.414;9.872;2023-05-07T02:57:53;4.955605507;;4.955605507;;;;;;;
71550;SPS30;59367;48.414;9.872;2023-05-07T02:58:59;4.988147736;;4.988147736;;;;;;;
71550;SPS30;59367;48.414;9.872;2023-05-07T03:00:12;4.657345772;;4.657345772;;;;;;;
71550;SPS30;59367;48.414;9.872;2023-05-07T03:01:20;4.782735825;;4.782735825;;;;;;;
71550;SPS30;59367;48.414;9.872;2023-05-07T03:02:25;4.142244816;;4.142244816;;;;;;;
71550;SPS30;59367;48.414;9.872;2023-05-07T03:03:31;4.349059105;;4.349059105;;;;;;;
71550;SPS30;59367;48.414;9.872;2023-05-07T03:04:40;4.760155201;;4.760155201;;;;;;;
71550;SPS30;59367;48.414;9.872;2023-05-07T03:05:46;4.601896286;;4.601896286;;;;;;;
71550;SPS30;59367;48.414;9.872;2023-05-07T03:06:52;5.079572678;;5.079572678;;;;;;;
71550;SPS30;59367;48.414;9.872;2023-05-07T03:07:58;3.876345396;;3.876345396;;;;;;;
71550;SPS30;59367;48.414;9.872;2023-05-07T03:09:04;4.31385231;;4.31385231;;;;;;;
71550;SPS30;59367;48.414;9.872;2023-05-07T03:10:11;4.424898148;;4.424898148;;;;;;;
71550;SPS30;59367;48.414;9.872;2023-05-07T03:11:18;4.912490845;;4.912490845;;;;;;;
71550;SPS30;59367;48.414;9.872;2023-05-07T03:12:24;4.486249447;;4.486249447;;;;;;;
71550;SPS30;59367;48.414;9.872;2023-05-07T03:13:30;4.233864307;;4.233864307;;;;;;;
71550;SPS30;59367;48.414;9.872;2023-05-07T03:14:35;4.50275135;;4.50275135;;;;;;;
71550;SPS30;59367;48.414;9.872;2023-05-07T03:15:42;4.649468899;;4.649468899;;;;;;;
71550;SPS30;59367;48.414;9.872;2023-05-07T03:16:48;5.166773796;;5.166773796;;;;;;;
71550;SPS30;59367;48.414;9.872;2023-05-07T03:17:54;5.177730083;;5.177730083;;;;;;;
71550;SPS30;59367;48.414;9.872;2023-05-07T03:19:00;5.368351936;;5.368351936;;;;;;;
71550;SPS30;59367;48.414;9.872;2023-05-07T03:20:07;5.019342899;;5.019342899;;;;;;;
71550;SPS30;59367;48.414;9.872;2023-05-07T03:21:14;4.313803673;;4.313803673;;;;;;;
71550;SPS30;59367;48.414;9.872;2023-05-07T03:22:20;4.315003395;;4.315003395;;;;;;;
71550;SPS30;59367;48.414;9.872;2023-05-07T03:23:26;4.168978214;;4.168978214;;;;;;;
71550;SPS30;59367;48.414;9.872;2023-05-07T03:24:32;4.143508911;;4.143508911;;;;;;;
71550;SPS30;59367;48.414;9.872;2023-05-07T03:25:37;3.867186308;;3.867186308;;;;;;;
71550;SPS30;59367;48.414;9.872;2023-05-07T03:26:43;4.506213188;;4.506213188;;;;;;;
71550;SPS30;59367;48.414;9.872;2023-05-07T03:27:50;4.231394768;;4.231394768;;;;;;;
71550;SPS30;59367;48.414;9.872;2023-05-07T03:28:56;3.917990685;;3.917990685;;;;;;;
71550;SPS30;59367;48.414;9.872;2023-05-07T03:30:01;3.804354191;;3.804354191;;;;;;;
71550;SPS30;59367;48.414;9.872;2023-05-07T03:31:09;4.051681995;;4.051681995;;;;;;;
71550;SPS30;59367;48.414;9.872;2023-05-07T03:32:15;4.32328701;;4.32328701;;;;;;;
71550;SPS30;59367;48.414;9.872;2023-05-07T03:33:21;3.555052757;;3.555052757;;;;;;;
71550;SPS30;59367;48.414;9.872;2023-05-07T03:34:27;4.066456795;;4.066456795;;;;;;;
71550;SPS30;59367;48.414;9.872;2023-05-07T03:35:33;3.730372906;;3.730372906;;;;;;;
71550;SPS30;59367;48.414;9.872;2023-05-07T03:36:40;3.502338171;;3.502338171;;;;;;;
71550;SPS30;59367;48.414;9.872;2023-05-07T03:37:45;3.977854013;;3.977854013;;;;;;;
71550;SPS30;59367;48.414;9.872;2023-05-07T03:38:52;4.327000141;;4.327000141;;;;;;;
71550;SPS30;59367;48.414;9.872;2023-05-07T03:39:58;4.608046055;;4.608046055;;;;;;;
71550;SPS30;59367;48.414;9.872;2023-05-07T03:41:05;4.036705017;;4.036705017;;;;;;;
71550;SPS30;59367;48.414;9.872;2023-05-07T03:42:11;4.522387028;;4.522387028;;;;;;;
71550;SPS30;59367;48.414;9.872;2023-05-07T03:43:17;4.542248726;;4.542248726;;;;;;;
71550;SPS30;59367;48.414;9.872;2023-05-07T03:44:23;4.755211353;;4.755211353;;;;;;;
71550;SPS30;59367;48.414;9.872;2023-05-07T03:45:29;4.418794155;;4.418794155;;;;;;;
71550;SPS30;59367;48.414;9.872;2023-05-07T03:46:35;4.352695942;;4.352695942;;;;;;;
71550;SPS30;59367;48.414;9.872;2023-05-07T03:47:41;4.833312511;;4.833312511;;;;;;;
71550;SPS30;59367;48.414;9.872;2023-05-07T03:48:47;4.355956554;;4.355956554;;;;;;;
71550;SPS30;59367;48.414;9.872;2023-05-07T03:49:53;4.477140427;;4.477140427;;;;;;;
71550;SPS30;59367;48.414;9.872;2023-05-07T03:51:00;4.173743725;;4.173743725;;;;;;;
71550;SPS30;59367;48.414;9.872;2023-05-07T03:52:07;3.921055079;;3.921055079;;;;;;;
71550;SPS30;59367;48.414;9.872;2023-05-07T03:53:12;4.403257847;;4.403257847;;;;;;;
71550;SPS30;59367;48.414;9.872;2023-05-07T03:54:19;4.174452305;;4.174452305;;;;;;;
71550;SPS30;59367;48.414;9.872;2023-05-07T03:55:25;3.503243208;;3.503243208;;;;;;;
71550;SPS30;59367;48.414;9.872;2023-05-07T03:56:31;3.63411665;;3.63411665;;;;;;;
71550;SPS30;59367;48.414;9.872;2023-05-07T03:57:37;4.299152851;;4.299152851;;;;;;;
71550;SPS30;59367;48.414;9.872;2023-05-07T03:58:42;3.943629026;;3.943629026;;;;;;;
71550;SPS30;59367;48.414;9.872;2023-05-07T03:59:48;3.57943058;;3.57943058;;;;;;;
71550;SPS30;59367;48.414;9.872;2023-05-07T04:00:54;4.223712444;;4.223712444;;;;;;;
71550;SPS30;59367;48.414;9.872;2023-05-07T04:02:01;4.312766075;;4.312766075;;;;;;;
71550;SPS30;59367;48.414;9.872;2023-05-07T04:03:06;4.688370228;;4.688370228;;;;;;;
71550;SPS30;59367;48.414;9.872;2023-05-07T04:04:12;4.162252426;;4.162252426;;;;;;;
71550;SPS30;59367;48.414;9.872;2023-05-07T04:05:18;4.022332191;;4.022332191;;;;;;;
71550;SPS30;59367;48.414;9.872;2023-05-07T04:06:24;4.597056866;;4.597056866;;;;;;;
71550;SPS30;59367;48.414;9.872;2023-05-07T04:07:29;4.484081268;;4.484081268;;;;;;;
71550;SPS30;59367;48.414;9.872;2023-05-07T04:08:35;4.100144386;;4.100144386;;;;;;;
71550;SPS30;59367;48.414;9.872;2023-05-07T04:09:42;4.087376595;;4.087376595;;;;;;;
71550;SPS30;59367;48.414;9.872;2023-05-07T04:10:48;4.163982391;;4.163982391;;;;;;;
71550;SPS30;59367;48.414;9.872;2023-05-07T04:11:57;4.280676842;;4.280676842;;;;;;;
71550;SPS30;59367;48.414;9.872;2023-05-07T04:13:03;3.548940897;;3.548940897;;;;;;;
71550;SPS30;59367;48.414;9.872;2023-05-07T04:14:08;3.647494316;;3.647494316;;;;;;;
71550;SPS30;59367;48.414;9.872;2023-05-07T04:15:14;4.204110146;;4.204110146;;;;;;;
71550;SPS30;59367;48.414;9.872;2023-05-07T04:16:19;3.973993301;;3.973993301;;;;;;;
71550;SPS30;59367;48.414;9.872;2023-05-07T04:17:25;4.030267715;;4.030267715;;;;;;;
71550;SPS30;59367;48.414;9.872;2023-05-07T04:18:31;4.287331104;;4.287331104;;;;;;;
71550;SPS30;59367;48.414;9.872;2023-05-07T04:19:38;3.993811846;;3.993811846;;;;;;;
71550;SPS30;59367;48.414;9.872;2023-05-07T04:20:43;4.153418064;;4.153418064;;;;;;;
71550;SPS30;59367;48.414;9.872;2023-05-07T04:21:49;4.797561169;;4.797561169;;;;;;;
71550;SPS30;59367;48.414;9.872;2023-05-07T04:22:55;4.261226177;;4.261226177;;;;;;;
71550;SPS30;59367;48.414;9.872;2023-05-07T04:24:02;4.062883377;;4.062883377;;;;;;;
71550;SPS30;59367;48.414;9.872;2023-05-07T04:25:09;3.964313507;;3.964313507;;;;;;;
71550;SPS30;59367;48.414;9.872;2023-05-07T04:26:15;3.983632803;;3.983632803;;;;;;;
71550;SPS30;59367;48.414;9.872;2023-05-07T04:27:21;4.330530167;;4.330530167;;;;;;;
71550;SPS30;59367;48.414;9.872;2023-05-07T04:28:26;4.602661133;;4.602661133;;;;;;;
71550;SPS30;59367;48.414;9.872;2023-05-07T04:29:32;4.487946033;;4.487946033;;;;;;;
71550;SPS30;59367;48.414;9.872;2023-05-07T04:30:38;4.023561478;;4.023561478;;;;;;;
71550;SPS30;59367;48.414;9.872;2023-05-07T04:31:44;4.632411003;;4.632411003;;;;;;;
71550;SPS30;59367;48.414;9.872;2023-05-07T04:32:50;4.279078007;;4.279078007;;;;;;;
71550;SPS30;59367;48.414;9.872;2023-05-07T04:33:56;4.862410069;;4.862410069;;;;;;;
71550;SPS30;59367;48.414;9.872;2023-05-07T04:35:02;4.804862499;;4.804862499;;;;;;;
71550;SPS30;59367;48.414;9.872;2023-05-07T04:36:08;4.686696053;;4.686696053;;;;;;;
71550;SPS30;59367;48.414;9.872;2023-05-07T04:37:14;4.597072124;;4.597072124;;;;;;;
71550;SPS30;59367;48.414;9.872;2023-05-07T04:38:21;4.751804352;;4.751804352;;;;;;;
71550;SPS30;59367;48.414;9.872;2023-05-07T04:39:27;4.874761581;;4.874761581;;;;;;;
71550;SPS30;59367;48.414;9.872;2023-05-07T04:40:33;4.486964226;;4.486964226;;;;;;;
71550;SPS30;59367;48.414;9.872;2023-05-07T04:41:41;5.123355865;;5.123355865;;;;;;;
71550;SPS30;59367;48.414;9.872;2023-05-07T04:42:47;5.032897949;;5.032897949;;;;;;;
71550;SPS30;59367;48.414;9.872;2023-05-07T04:43:53;4.853042603;;4.853042603;;;;;;;
71550;SPS30;59367;48.414;9.872;2023-05-07T04:44:59;4.536948204;;4.536948204;;;;;;;
71550;SPS30;59367;48.414;9.872;2023-05-07T04:46:05;5.379453182;;5.379453182;;;;;;;
71550;SPS30;59367;48.414;9.872;2023-05-07T04:47:11;4.994878769;;4.994878769;;;;;;;
71550;SPS30;59367;48.414;9.872;2023-05-07T04:48:17;5.340919495;;5.340919495;;;;;;;
71550;SPS30;59367;48.414;9.872;2023-05-07T04:49:22;4.780275345;;4.780275345;;;;;;;
71550;SPS30;59367;48.414;9.872;2023-05-07T04:50:28;4.788540363;;4.788540363;;;;;;;
71550;SPS30;59367;48.414;9.872;2023-05-07T04:51:34;5.062120438;;5.062120438;;;;;;;
71550;SPS30;59367;48.414;9.872;2023-05-07T04:52:40;4.556133747;;4.556133747;;;;;;;
71550;SPS30;59367;48.414;9.872;2023-05-07T04:53:45;4.960778236;;4.960778236;;;;;;;
71550;SPS30;59367;48.414;9.872;2023-05-07T04:54:51;4.733197689;;4.733197689;;;;;;;
71550;SPS30;59367;48.414;9.872;2023-05-07T04:56:00;4.164923191;;4.164923191;;;;;;;
71550;SPS30;59367;48.414;9.872;2023-05-07T04:57:06;4.837356091;;4.837356091;;;;;;;
71550;SPS30;59367;48.414;9.872;2023-05-07T04:58:12;4.368833065;;4.368833065;;;;;;;
71550;SPS30;59367;48.414;9.872;2023-05-07T04:59:19;5.258327007;;5.258327007;;;;;;;
71550;SPS30;59367;48.414;9.872;2023-05-07T05:00:25;5.086588383;;5.086588383;;;;;;;
71550;SPS30;59367;48.414;9.872;2023-05-07T05:01:31;4.881652832;;4.881652832;;;;;;;
71550;SPS30;59367;48.414;9.872;2023-05-07T05:02:37;5.37691927;;5.37691927;;;;;;;
71550;SPS30;59367;48.414;9.872;2023-05-07T05:03:44;6.860370636;;6.860370636;;;;;;;
71550;SPS30;59367;48.414;9.872;2023-05-07T05:04:49;6.450514793;;6.450514793;;;;;;;
71550;SPS30;59367;48.414;9.872;2023-05-07T05:05:56;7.272921085;;7.272921085;;;;;;;
71550;SPS30;59367;48.414;9.872;2023-05-07T05:07:03;7.339739323;;7.339739323;;;;;;;
71550;SPS30;59367;48.414;9.872;2023-05-07T05:08:09;6.874701977;;6.874701977;;;;;;;
71550;SPS30;59367;48.414;9.872;2023-05-07T05:09:15;6.794396877;;6.794396877;;;;;;;
71550;SPS30;59367;48.414;9.872;2023-05-07T05:10:21;7.523966312;;7.523966312;;;;;;;
71550;SPS30;59367;48.414;9.872;2023-05-07T05:11:27;6.448154449;;6.448154449;;;;;;;
71550;SPS30;59367;48.414;9.872;2023-05-07T05:12:34;6.559412479;;6.559412479;;;;;;;
71550;SPS30;59367;48.414;9.872;2023-05-07T05:13:40;6.717392445;;6.717392445;;;;;;;
71550;SPS30;59367;48.414;9.872;2023-05-07T05:14:45;8.275707245;;8.275707245;;;;;;;
71550;SPS30;59367;48.414;9.872;2023-05-07T05:15:50;6.828870296;;6.828870296;;;;;;;
71550;SPS30;59367;48.414;9.872;2023-05-07T05:16:56;6.585709572;;6.585709572;;;;;;;
71550;SPS30;59367;48.414;9.872;2023-05-07T05:18:02;6.249345303;;6.249345303;;;;;;;